Terminal Aerodrome Forecast
Issued by NWS Melbourne, FL

Home | Current Version | Previous Version | Text Only | Print | Product List | Glossary On
Versions: 1 2 3 4 5 6 7 8 9 10 11 12
070
FTUS42 KMLB 200531
TAFVRB
TAF
KVRB 200531Z 2006/2106 VRB03KT P6SM SKC
     FM201400 36010KT P6SM FEW020 SCT060
     FM201700 06013G21KT P6SM SCT025 SCT060
     FM210000 08011KT P6SM VCSH SCT020 BKN040=

USA.gov is the U.S. government's official web portal to all federal, state and local government web resources and services.